Terminal Aerodrome Forecast
Issued by NWS Bismarck, ND

Home | Current Version | Previous Version | Graphics & Text | Print | Product List | Glossary On
Versions: 1 2 3 4 5 6 7 8 9 10 11 12 13 14
120
FTUS43 KBIS 132326
TAFBIS
TAF
KBIS 132326Z 1400/1424 22006KT P6SM SKC
     FM140300 27005KT P6SM SKC
     FM141800 21005KT P6SM SKC=

USA.gov is the U.S. government's official web portal to all federal, state and local government web resources and services.